createdAt,value
2019-06-10T00:01:21.339Z,5.73
2019-06-10T00:04:23.851Z,4.80
2019-06-10T00:07:25.751Z,5.30
2019-06-10T00:10:27.604Z,5.90
2019-06-10T00:13:31.395Z,5.73
2019-06-10T00:16:33.367Z,6.00
2019-06-10T00:19:35.249Z,6.17
2019-06-10T00:22:37.212Z,5.60
2019-06-10T00:25:41.303Z,5.17
2019-06-10T00:28:43.021Z,5.10
2019-06-10T00:31:44.940Z,6.07
2019-06-10T00:34:46.812Z,5.40
2019-06-10T00:37:51.065Z,5.60
2019-06-10T00:40:52.713Z,5.97
2019-06-10T00:43:55.348Z,6.43
2019-06-10T00:46:57.364Z,6.23
2019-06-10T00:50:02.855Z,5.87
2019-06-10T00:53:04.504Z,6.57
2019-06-10T00:56:09.621Z,6.33
2019-06-10T00:59:14.781Z,7.37
2019-06-10T01:02:15.262Z,6.20
2019-06-10T01:05:17.182Z,7.17
2019-06-10T01:08:21.255Z,6.40
2019-06-10T01:11:26.993Z,7.20
2019-06-10T01:14:26.769Z,6.90
2019-06-10T01:17:30.981Z,6.97
2019-06-10T01:20:32.576Z,7.33
2019-06-10T01:23:34.501Z,8.40
2019-06-10T01:26:36.379Z,6.90
2019-06-10T01:29:38.296Z,6.63
2019-06-10T01:32:41.638Z,7.47
2019-06-10T01:35:43.813Z,6.80
2019-06-10T01:38:45.652Z,8.30
2019-06-10T01:41:47.536Z,8.20
2019-06-10T01:44:50.693Z,8.30
2019-06-10T01:47:52.882Z,7.93
2019-06-10T01:50:55.205Z,8.07
2019-06-10T01:53:57.117Z,8.07
2019-06-10T01:57:01.343Z,7.33
2019-06-10T02:00:09.921Z,8.70
2019-06-10T02:03:13.267Z,8.13
2019-06-10T02:06:16.581Z,8.57
2019-06-10T02:09:18.801Z,7.50
2019-06-10T02:12:24.043Z,7.67
2019-06-10T02:15:25.143Z,7.73
2019-06-10T02:18:27.164Z,8.57
2019-06-10T02:21:31.175Z,8.17
2019-06-10T02:24:33.332Z,7.90
2019-06-10T02:27:35.245Z,8.43
2019-06-10T02:30:46.214Z,9.17
2019-06-10T02:33:41.964Z,8.57
2019-06-10T02:36:44.807Z,8.67
2019-06-10T02:39:47.082Z,8.70
2019-06-10T02:42:53.786Z,10.13
2019-06-10T02:45:54.664Z,9.03
2019-06-10T02:49:16.429Z,9.10
2019-06-10T02:52:03.344Z,10.23
2019-06-10T02:55:06.274Z,9.93
2019-06-10T02:58:08.620Z,9.87
2019-06-10T03:01:10.503Z,9.13
2019-06-10T03:04:13.796Z,11.27
2019-06-10T03:07:17.792Z,10.70
2019-06-10T03:10:22.671Z,10.10
2019-06-10T03:13:25.583Z,10.23
2019-06-10T03:16:29.545Z,11.27
2019-06-10T03:19:44.116Z,11.30
2019-06-10T03:22:35.291Z,10.60
2019-06-10T03:25:37.245Z,11.97
2019-06-10T03:28:39.124Z,11.07
2019-06-10T03:31:47.796Z,11.90
2019-06-10T03:34:47.714Z,12.03
2019-06-10T03:37:50.054Z,12.73
2019-06-10T03:40:52.452Z,12.20
2019-06-10T03:43:54.780Z,11.70
2019-06-10T03:46:56.729Z,12.30
2019-06-10T03:49:58.870Z,14.30
2019-06-10T03:53:04.302Z,14.23
2019-06-10T03:56:05.194Z,13.60
2019-06-10T03:59:07.131Z,13.10
2019-06-10T04:02:09.013Z,13.83
2019-06-10T04:05:13.351Z,14.23
2019-06-10T04:08:15.049Z,14.80
2019-06-10T04:11:17.438Z,15.40
2019-06-10T04:14:22.055Z,14.90
2019-06-10T04:17:25.280Z,15.00
2019-06-10T04:20:28.338Z,17.33
2019-06-10T04:23:33.393Z,17.53
2019-06-10T04:26:35.091Z,16.23
2019-06-10T04:29:37.088Z,17.33
2019-06-10T04:32:38.967Z,17.03
2019-06-10T04:35:42.712Z,16.63
2019-06-10T04:38:44.788Z,16.87
2019-06-10T04:41:46.674Z,16.67
2019-06-10T04:44:48.565Z,17.33
2019-06-10T04:47:52.454Z,16.20
2019-06-10T04:50:54.819Z,17.17
2019-06-10T04:53:57.932Z,17.83
2019-06-10T04:57:02.140Z,16.80
2019-06-10T05:00:11.177Z,18.07
2019-06-10T05:03:12.098Z,17.30
2019-06-10T05:06:14.418Z,16.77
2019-06-10T05:09:19.030Z,16.77
2019-06-10T05:12:23.275Z,18.57
2019-06-10T05:15:28.451Z,16.20
2019-06-10T05:18:30.221Z,18.00
2019-06-10T05:21:33.785Z,18.30
2019-06-10T05:24:35.890Z,17.87
2019-06-10T05:27:37.769Z,18.60
2019-06-10T05:30:39.698Z,18.10
2019-06-10T05:33:42.573Z,17.57
2019-06-10T05:36:44.813Z,17.60
2019-06-10T05:39:46.745Z,18.07
2019-06-10T05:42:48.734Z,17.67
2019-06-10T05:45:52.882Z,17.33
2019-06-10T05:48:54.534Z,16.00
2019-06-10T05:51:56.649Z,18.03
2019-06-10T05:54:58.530Z,16.30
2019-06-10T05:58:02.595Z,16.47
2019-06-10T06:01:04.278Z,16.02
2019-06-10T06:04:06.175Z,17.07
2019-06-10T06:07:08.085Z,15.85
2019-06-10T06:10:12.818Z,15.65
2019-06-10T06:13:14.572Z,15.38
2019-06-10T06:16:17.852Z,15.88
2019-06-10T06:19:19.712Z,15.40
2019-06-10T06:22:22.193Z,16.32
2019-06-10T06:25:24.343Z,14.98
2019-06-10T06:28:26.331Z,15.38
2019-06-10T06:31:28.269Z,15.95
2019-06-10T06:34:32.651Z,15.50
2019-06-10T06:37:36.409Z,15.58
2019-06-10T06:40:39.213Z,14.83
2019-06-10T06:43:45.038Z,14.20
2019-06-10T06:46:45.012Z,16.07
2019-06-10T06:49:47.394Z,14.23
2019-06-10T06:53:18.815Z,14.60
2019-06-10T06:55:55.857Z,14.58
2019-06-10T06:58:57.179Z,14.83
2019-06-10T07:01:59.166Z,14.68
2019-06-10T07:05:03.139Z,14.38
2019-06-10T07:08:06.519Z,13.48
2019-06-10T07:11:13.163Z,13.90
2019-06-10T07:14:18.019Z,14.98
2019-06-10T07:17:22.607Z,13.90
2019-06-10T07:20:23.896Z,15.03
2019-06-10T07:23:25.886Z,13.75
2019-06-10T07:26:27.805Z,14.83
2019-06-10T07:29:29.639Z,14.07
2019-06-10T07:32:34.154Z,13.30
2019-06-10T07:35:36.085Z,13.68
2019-06-10T07:38:41.762Z,14.18
2019-06-10T07:41:47.415Z,14.63
2019-06-10T07:44:47.012Z,14.60
2019-06-10T07:47:49.071Z,14.87
2019-06-10T07:50:53.203Z,14.30
2019-06-10T07:53:54.992Z,13.88
2019-06-10T07:56:57.020Z,13.70
2019-06-10T07:59:59.042Z,12.88
2019-06-10T08:03:02.474Z,12.23
2019-06-10T08:06:04.710Z,12.07
2019-06-10T08:09:06.621Z,12.15
2019-06-10T08:12:08.616Z,12.58
2019-06-10T08:15:12.479Z,12.78
2019-06-10T08:18:14.861Z,13.22
2019-06-10T08:21:16.837Z,12.05
2019-06-10T08:24:18.820Z,12.25
2019-06-10T08:27:22.721Z,12.82
2019-06-10T08:30:27.658Z,12.28
2019-06-10T08:33:28.498Z,12.13
2019-06-10T08:36:33.128Z,12.10
2019-06-10T08:39:34.299Z,10.80
2019-06-10T08:42:36.573Z,11.68
2019-06-10T08:45:38.972Z,11.40
2019-06-10T08:48:43.846Z,11.75
2019-06-10T08:51:48.143Z,11.12
2019-06-10T08:54:53.673Z,12.33
2019-06-10T08:57:54.060Z,11.40
2019-06-10T09:00:56.064Z,11.83
2019-06-10T09:03:57.982Z,10.95
2019-06-10T09:06:59.889Z,10.43
2019-06-10T09:10:03.100Z,11.30
2019-06-10T09:13:05.458Z,12.28
2019-06-10T09:16:15.507Z,10.15
2019-06-10T09:19:13.136Z,10.50
2019-06-10T09:22:15.229Z,9.70
2019-06-10T09:25:17.588Z,9.63
2019-06-10T09:28:19.539Z,10.90
2019-06-10T09:31:23.821Z,10.40
2019-06-10T09:34:25.339Z,11.12
2019-06-10T09:37:27.240Z,10.88
2019-06-10T09:40:57.576Z,10.00
2019-06-10T09:43:57.001Z,11.63
2019-06-10T09:47:00.316Z,10.88
2019-06-10T09:50:08.180Z,11.65
2019-06-10T09:53:12.711Z,11.70
2019-06-10T09:56:15.250Z,11.68
2019-06-10T09:59:17.169Z,11.15
2019-06-10T10:02:19.046Z,10.63
2019-06-10T10:05:23.365Z,11.50
2019-06-10T10:08:24.891Z,10.85
2019-06-10T10:11:28.865Z,11.48
2019-06-10T10:14:33.370Z,10.78
2019-06-10T10:17:35.041Z,10.98
2019-06-10T10:20:37.090Z,11.10
2019-06-10T10:23:51.214Z,10.55
2019-06-10T10:26:46.705Z,10.10
2019-06-10T10:29:48.895Z,11.30
2019-06-10T10:32:52.369Z,11.22
2019-06-10T10:35:54.775Z,10.13
2019-06-10T10:38:56.701Z,10.08
2019-06-10T10:41:58.651Z,11.28
2019-06-10T10:45:02.764Z,11.40
2019-06-10T10:48:04.627Z,11.53
2019-06-10T10:51:06.558Z,11.25
2019-06-10T10:54:22.493Z,11.97
2019-06-10T10:57:13.184Z,12.15
2019-06-10T11:00:18.930Z,13.32
2019-06-10T11:03:22.889Z,11.73
2019-06-10T11:06:24.727Z,11.83
2019-06-10T11:09:27.936Z,10.67
2019-06-10T11:12:33.075Z,11.25
2019-06-10T11:15:34.641Z,9.88
2019-06-10T11:18:36.595Z,11.20
2019-06-10T11:21:38.672Z,11.18
2019-06-10T11:24:42.292Z,10.05
2019-06-10T11:27:46.312Z,11.03
2019-06-10T11:30:49.425Z,10.72
2019-06-10T11:33:56.959Z,10.18
2019-06-10T11:36:58.213Z,11.18
2019-06-10T11:40:02.667Z,10.35
2019-06-10T11:43:04.332Z,10.65
2019-06-10T11:46:07.726Z,11.25
2019-06-10T11:49:12.433Z,9.85
2019-06-10T11:52:13.994Z,10.63
2019-06-10T11:55:19.131Z,10.00
2019-06-10T11:58:22.291Z,10.68
2019-06-10T12:01:23.767Z,9.65
2019-06-10T12:04:25.700Z,9.98
2019-06-10T12:07:27.680Z,9.75
2019-06-10T12:10:29.543Z,9.80
2019-06-10T12:13:34.299Z,10.43
2019-06-10T12:19:39.260Z,10.58
2019-06-10T12:22:42.357Z,10.10
2019-06-10T12:25:47.821Z,9.95
2019-06-10T12:28:50.697Z,10.88
2019-06-10T12:31:57.866Z,10.08
2019-06-10T12:34:58.372Z,11.28
2019-06-10T12:38:05.863Z,10.85
2019-06-10T12:41:09.684Z,9.73
2019-06-10T12:44:09.048Z,11.95
2019-06-10T12:47:11.011Z,10.20
2019-06-10T12:50:15.140Z,9.53
2019-06-10T12:53:17.056Z,8.90
2019-06-10T12:56:19.100Z,9.90
2019-06-10T12:59:21.249Z,9.00
2019-06-10T13:02:30.498Z,9.40
2019-06-10T13:05:27.166Z,9.68
2019-06-10T13:08:33.193Z,10.45
2019-06-10T13:11:35.417Z,9.90
2019-06-10T13:14:37.371Z,9.37
2019-06-10T13:17:39.294Z,10.28
2019-06-10T13:20:43.264Z,8.73
2019-06-10T13:23:45.256Z,9.48
2019-06-10T13:26:47.185Z,8.40
2019-06-10T13:29:53.241Z,8.50
2019-06-10T13:32:56.364Z,9.25
2019-06-10T13:35:58.842Z,8.75
2019-06-10T13:39:04.003Z,8.55
2019-06-10T13:42:09.963Z,9.43
2019-06-10T13:45:11.770Z,10.38
2019-06-10T13:48:14.941Z,8.65
2019-06-10T13:51:17.318Z,8.25
2019-06-10T13:54:19.242Z,9.03
2019-06-10T13:57:23.032Z,9.35
2019-06-10T14:00:40.468Z,9.45
2019-06-10T14:03:32.616Z,8.45
2019-06-10T14:06:46.206Z,7.77
2019-06-10T14:09:38.334Z,8.65
2019-06-10T14:12:40.300Z,9.87
2019-06-10T14:15:42.873Z,10.50
2019-06-10T14:18:44.832Z,8.20
2019-06-10T14:21:46.750Z,8.63
2019-06-10T14:24:48.744Z,9.40
2019-06-10T14:27:53.075Z,9.70
2019-06-10T14:30:54.841Z,9.50
2019-06-10T14:33:56.742Z,9.53
2019-06-10T14:36:59.224Z,10.80
2019-06-10T14:40:03.604Z,15.07
2019-06-10T14:43:15.009Z,11.57
2019-06-10T14:46:17.725Z,12.00
2019-06-10T14:55:53.246Z,12.00
